Liberty Promise — WWMZ — position and weather

sailwx.info

Track history (hours):
 
Tides and Currents Weather Stations Pressure Air Temp Water Temp Dewpoint Dewpoint Depression Visibility Wind Speed Wind Dir Waves Ship Positions

Liberty Promise

Owner: LIBERTY PROMISE CORPORATION, LAKE SUCCESS, NY. More information available from US FCC via Universal Licensing System and Coast Guard Vessel Documentation Center.

Last reported at 2016-May-26 18:00 UTC. Time now 2016-May-28 19:44 UTC.
Position N 33°18' E 033°48'.

Length 200 m; draft 8.7 m.

Type: Cargo ship. MMSI: 366102000.

Wind from 290 at 19 knots

Waves 1.0 meters (3 feet), 8 second period

Barometer 1016.9 mb
Air temperature 20.0 ° C
Visibility: greater than 10.8 NM
Dewpoint 14.9 ° C
Water temperature 23.2 ° C

Date/timePositionNaut miles runAvg speedWind from/ knotsBaromVisibWave heightAir tempDewpointWater temp
2016-May-26 18:00N 33°18' E 033°48'7513.8 290 / 191016.910.8 1.020.014.923.2
2016-May-26 12:33N 32°46' E 032°27'165 5.5
2016-May-25 06:21N 31°12' E 029°48'4 4.4
2016-May-25 05:25N 31°16' E 029°47'1514.2
2016-May-25 04:20N 31°19' E 029°29'52015.9
2016-May-23 19:32N 34°27' E 019°51'11516.2
2016-May-23 12:25N 35°10' E 017°41'7816.0
2016-May-23 07:33N 35°38' E 016°12'1716.7
2016-May-23 06:33N 35°45' E 015°53'1616.5
2016-May-23 05:33N 35°51' E 015°34'1616.4
2016-May-23 04:34N 35°58' E 015°16'1616.4
2016-May-23 03:34N 36°03' E 014°57'1716.8
2016-May-23 02:33N 36°08' E 014°37'1716.7
2016-May-23 01:33N 36°13' E 014°17'1616.2
2016-May-23 00:34N 36°20' E 013°59'1616.4
2016-May-22 23:34N 36°26' E 013°40'1716.7
2016-May-22 22:34N 36°31' E 013°20'1716.7
2016-May-22 21:33N 36°37' E 013°01'1717.3
2016-May-22 20:33N 36°43' E 012°40'1717.1
2016-May-22 19:33N 36°49' E 012°21'1716.8
2016-May-22 18:33N 36°55' E 012°01'2748.1
2016-May-22 18:00N 37°06' E 011°30'1125.2 170 / 31015.610.8 0.519.515.318.5
2016-May-22 17:33N 37°03' E 011°43'1616.3
2016-May-22 16:33N 37°12' E 011°26'1716.6
2016-May-22 15:33N 37°22' E 011°09'1717.1
2016-May-22 14:33N 37°26' E 010°48'1717.0
2016-May-22 13:34N 37°31' E 010°28'25116.7
2016-May-21 22:33N 37°12' E 005°13'5816.4
2016-May-21 19:03N 37°06' E 004°01'815.6
2016-May-21 18:32N 37°06' E 003°51'1515.3
2016-May-21 17:33N 37°05' E 003°32'1515.4
2016-May-21 16:33N 37°03' E 003°13'1616.3
2016-May-21 15:33N 37°01' E 002°53'1616.1
2016-May-21 14:33N 36°59' E 002°33'1615.9
2016-May-21 13:33N 36°56' E 002°13'1616.4
2016-May-21 12:33N 36°52' E 001°53'1716.7
2016-May-21 11:34N 36°50' E 001°32'3316.2
2016-May-21 09:33N 36°44' E 000°52'1616.0
2016-May-21 08:33N 36°42' E 000°33'4915.9
2016-May-21 05:29N 36°35' W 000°28'1516.1
2016-May-21 04:33N 36°33' W 000°46'22517.3
2016-May-20 15:34N 35°59' W 005°22'14116.8
2016-May-20 07:07N 35°58' W 008°17'916.6
2016-May-20 06:34N 36°02' W 008°28'1716.8
2016-May-20 05:34N 36°08' W 008°47'1716.8
2016-May-20 04:33N 36°14' W 009°07'1716.8
2016-May-20 03:33N 36°20' W 009°26'55516.5
2016-May-18 18:00N 39°06' W 020°36'22716.8 320 / 31026.010.8 0.518.515.117.7
2016-May-18 04:31N 39°57' W 025°23'  
Track history (hours):
 
Tides and Currents Weather Stations Pressure Air Temp Water Temp Dewpoint Dewpoint Depression Visibility Wind Speed Wind Dir Waves Ship Positions

Liberty Promise

Owner: LIBERTY PROMISE CORPORATION, LAKE SUCCESS, NY. More information available from US FCC via Universal Licensing System and Coast Guard Vessel Documentation Center.

Last reported at 2016-May-26 18:00 UTC. Time now 2016-May-28 19:44 UTC.
Position N 33°18' E 033°48'.

Length 200 m; draft 8.7 m.

Type: Cargo ship. MMSI: 366102000.

Wind from 290 at 19 knots

Waves 1.0 meters (3 feet), 8 second period

Barometer 1016.9 mb
Air temperature 20.0 ° C
Visibility: greater than 10.8 NM
Dewpoint 14.9 ° C
Water temperature 23.2 ° C

Date/timePositionNaut miles runAvg speedWind from/ knotsBaromVisibWave heightAir tempDewpointWater temp
2016-May-26 18:00N 33°18' E 033°48'7513.8 290 / 191016.910.8 1.020.014.923.2
2016-May-26 12:33N 32°46' E 032°27'165 5.5
2016-May-25 06:21N 31°12' E 029°48'4 4.4
2016-May-25 05:25N 31°16' E 029°47'1514.2
2016-May-25 04:20N 31°19' E 029°29'52015.9
2016-May-23 19:32N 34°27' E 019°51'11516.2
2016-May-23 12:25N 35°10' E 017°41'7816.0
2016-May-23 07:33N 35°38' E 016°12'1716.7
2016-May-23 06:33N 35°45' E 015°53'1616.5
2016-May-23 05:33N 35°51' E 015°34'1616.4
2016-May-23 04:34N 35°58' E 015°16'1616.4
2016-May-23 03:34N 36°03' E 014°57'1716.8
2016-May-23 02:33N 36°08' E 014°37'1716.7
2016-May-23 01:33N 36°13' E 014°17'1616.2
2016-May-23 00:34N 36°20' E 013°59'1616.4
2016-May-22 23:34N 36°26' E 013°40'1716.7
2016-May-22 22:34N 36°31' E 013°20'1716.7
2016-May-22 21:33N 36°37' E 013°01'1717.3
2016-May-22 20:33N 36°43' E 012°40'1717.1
2016-May-22 19:33N 36°49' E 012°21'1716.8
2016-May-22 18:33N 36°55' E 012°01'2748.1
2016-May-22 18:00N 37°06' E 011°30'1125.2 170 / 31015.610.8 0.519.515.318.5
2016-May-22 17:33N 37°03' E 011°43'1616.3
2016-May-22 16:33N 37°12' E 011°26'1716.6
2016-May-22 15:33N 37°22' E 011°09'1717.1
2016-May-22 14:33N 37°26' E 010°48'1717.0
2016-May-22 13:34N 37°31' E 010°28'25116.7
2016-May-21 22:33N 37°12' E 005°13'5816.4
2016-May-21 19:03N 37°06' E 004°01'815.6
2016-May-21 18:32N 37°06' E 003°51'1515.3
2016-May-21 17:33N 37°05' E 003°32'1515.4
2016-May-21 16:33N 37°03' E 003°13'1616.3
2016-May-21 15:33N 37°01' E 002°53'1616.1
2016-May-21 14:33N 36°59' E 002°33'1615.9
2016-May-21 13:33N 36°56' E 002°13'1616.4
2016-May-21 12:33N 36°52' E 001°53'1716.7
2016-May-21 11:34N 36°50' E 001°32'3316.2
2016-May-21 09:33N 36°44' E 000°52'1616.0
2016-May-21 08:33N 36°42' E 000°33'4915.9
2016-May-21 05:29N 36°35' W 000°28'1516.1
2016-May-21 04:33N 36°33' W 000°46'22517.3
2016-May-20 15:34N 35°59' W 005°22'14116.8
2016-May-20 07:07N 35°58' W 008°17'916.6
2016-May-20 06:34N 36°02' W 008°28'1716.8
2016-May-20 05:34N 36°08' W 008°47'1716.8
2016-May-20 04:33N 36°14' W 009°07'1716.8
2016-May-20 03:33N 36°20' W 009°26'55516.5
2016-May-18 18:00N 39°06' W 020°36'22716.8 320 / 31026.010.8 0.518.515.117.7
2016-May-18 04:31N 39°57' W 025°23'  

Dump ship's entire track history